Empalme, Mexico

3:13 PM MST on August 03, 2015 (GMT -0700)
Gen Jose Ma Yanez International | | Change Station
CLOSE
Current Station
Airport
Location: Guaymas,
Elevation: 89 ft
Nearby Weather Stations

Elev 89 ft 27.97 °N, 110.93 °W | Updated 31 minutes ago

Partly Cloudy
Partly Cloudy
99 °F
Feels Like 112 °F
N
8
Wind Variable Wind from SSW

Today
High -- | Low -- °F
--% Chance of Precip.
Yesterday
High -- | Low -- °F
Precip. -- in
5:47 AM 7:11 PM
Waning Gibbous, 83% visible
Pressure 29.73 in
Visibility 10.0 miles
Clouds Few 3000 ft
Heat Index 112 °F
Dew Point 75 °F
Humidity 47%
Rainfall 0.00 in
Snow Depth Not available.
UV 9 out of 12
Pollen Not available.
Air Quality Not available.
Flu Activity Not available.
METAR MMGM 032142Z 20007KT 10SM FEW030 37/24 A2973 RMK 8/100 HZY

More Conditions Fewer Conditions

Pressure 29.73 in
Visibility 10.0 miles
Clouds Few 3000 ft
Heat Index 112 °F
Dew Point 75 °F
Humidity 47%
Rainfall 0.00 in
Snow Depth Not available.
UV 9 out of 12
Pollen Not available.
Air Quality Not available.
Flu Activity Not available.
METAR MMGM 032142Z 20007KT 10SM FEW030 37/24 A2973 RMK 8/100 HZY

More Conditions Fewer Conditions

10-Day Weather Forecast

×

Almanac

Astronomy

Aug. 03, 2015 Rise Set
Actual Time
Civil Twilight
Nautical Twilight
Astronomical Twilight
Moon
Length of Visible Light
Length of Day
Tomorrow will be .
, % of the Moon is Illuminated

Today's Extremes

Country Highs Country Lows

Community

WunderPhotos

Upload Photos

1,843,782 photos uploaded!

WunderBlogs® & News

Nearby

Air Quality

  Air Quality AQ Index Pollutant
Not available.

Snow Depth

Station Depth Elevation

Earthquake Activity

City Distance Mag. Time & Date
Minimum magnitude displayed is 2.5.

Coastal Water Temperatures

Place Temperature

Stations

Nearby Weather Stations

Station Location Temp. Windchill Dew Point Humidity Wind Precip. Elev Updated Type